sensor_id;sensor_type;location;lat;lon;timestamp;pressure;altitude;pressure_sealevel;temperature;humidity
10946;BME280;5525;42.648;23.368;2023-03-23T00:00:57;94668.63;;;6.79;100.00
10946;BME280;5525;42.648;23.368;2023-03-23T00:03:23;94666.63;;;6.71;100.00
10946;BME280;5525;42.648;23.368;2023-03-23T00:05:51;94662.34;;;6.70;100.00
10946;BME280;5525;42.648;23.368;2023-03-23T00:08:18;94672.00;;;6.58;100.00
10946;BME280;5525;42.648;23.368;2023-03-23T00:10:50;94670.78;;;6.23;100.00
10946;BME280;5525;42.648;23.368;2023-03-23T00:13:18;94672.88;;;6.26;100.00
10946;BME280;5525;42.648;23.368;2023-03-23T00:15:45;94673.59;;;6.32;100.00
10946;BME280;5525;42.648;23.368;2023-03-23T00:18:14;94670.69;;;6.28;100.00
10946;BME280;5525;42.648;23.368;2023-03-23T00:20:47;94676.81;;;6.29;100.00
10946;BME280;5525;42.648;23.368;2023-03-23T00:23:14;94668.78;;;6.29;100.00
10946;BME280;5525;42.648;23.368;2023-03-23T00:25:45;94671.47;;;6.29;100.00
10946;BME280;5525;42.648;23.368;2023-03-23T00:28:13;94674.34;;;6.19;100.00
10946;BME280;5525;42.648;23.368;2023-03-23T00:30:40;94680.75;;;6.04;100.00
10946;BME280;5525;42.648;23.368;2023-03-23T00:33:10;94679.47;;;6.02;100.00
10946;BME280;5525;42.648;23.368;2023-03-23T00:35:38;94688.91;;;5.99;100.00
10946;BME280;5525;42.648;23.368;2023-03-23T00:38:05;94684.69;;;6.12;100.00
10946;BME280;5525;42.648;23.368;2023-03-23T00:40:31;94687.66;;;6.10;100.00
10946;BME280;5525;42.648;23.368;2023-03-23T00:43:01;94688.63;;;6.01;100.00
10946;BME280;5525;42.648;23.368;2023-03-23T00:45:30;94690.94;;;6.07;100.00
10946;BME280;5525;42.648;23.368;2023-03-23T00:48:00;94704.78;;;5.77;100.00
10946;BME280;5525;42.648;23.368;2023-03-23T00:50:28;94697.47;;;5.83;100.00
10946;BME280;5525;42.648;23.368;2023-03-23T00:52:54;94694.88;;;5.96;100.00
10946;BME280;5525;42.648;23.368;2023-03-23T00:55:22;94701.19;;;5.87;100.00
10946;BME280;5525;42.648;23.368;2023-03-23T00:57:49;94702.69;;;5.74;100.00
10946;BME280;5525;42.648;23.368;2023-03-23T01:00:17;94695.13;;;5.63;100.00
10946;BME280;5525;42.648;23.368;2023-03-23T01:02:45;94709.00;;;5.65;100.00
10946;BME280;5525;42.648;23.368;2023-03-23T01:05:12;94707.47;;;5.77;100.00
10946;BME280;5525;42.648;23.368;2023-03-23T01:07:40;94704.84;;;5.91;100.00
10946;BME280;5525;42.648;23.368;2023-03-23T01:10:07;94699.91;;;5.84;100.00
10946;BME280;5525;42.648;23.368;2023-03-23T01:12:34;94700.59;;;5.71;100.00
10946;BME280;5525;42.648;23.368;2023-03-23T01:15:01;94700.84;;;5.00;100.00
10946;BME280;5525;42.648;23.368;2023-03-23T01:17:28;94695.34;;;4.92;100.00
10946;BME280;5525;42.648;23.368;2023-03-23T01:19:56;94701.66;;;5.01;100.00
10946;BME280;5525;42.648;23.368;2023-03-23T01:22:23;94698.00;;;5.10;100.00
10946;BME280;5525;42.648;23.368;2023-03-23T01:24:50;94694.69;;;5.37;100.00
10946;BME280;5525;42.648;23.368;2023-03-23T01:27:16;94692.66;;;5.48;100.00
10946;BME280;5525;42.648;23.368;2023-03-23T01:29:43;94690.81;;;5.80;100.00
10946;BME280;5525;42.648;23.368;2023-03-23T01:32:10;94685.50;;;5.94;100.00
10946;BME280;5525;42.648;23.368;2023-03-23T01:34:36;94678.72;;;6.15;100.00
10946;BME280;5525;42.648;23.368;2023-03-23T01:37:04;94679.13;;;6.22;100.00
10946;BME280;5525;42.648;23.368;2023-03-23T01:39:31;94672.19;;;6.21;100.00
10946;BME280;5525;42.648;23.368;2023-03-23T01:41:58;94668.91;;;6.24;100.00
10946;BME280;5525;42.648;23.368;2023-03-23T01:47:28;94667.72;;;6.30;100.00
10946;BME280;5525;42.648;23.368;2023-03-23T01:49:55;94661.66;;;6.38;100.00
10946;BME280;5525;42.648;23.368;2023-03-23T01:52:26;94670.47;;;6.25;100.00
10946;BME280;5525;42.648;23.368;2023-03-23T01:54:56;94665.34;;;6.28;100.00
10946;BME280;5525;42.648;23.368;2023-03-23T01:57:25;94658.06;;;6.29;100.00
10946;BME280;5525;42.648;23.368;2023-03-23T01:59:57;94662.84;;;6.32;100.00
10946;BME280;5525;42.648;23.368;2023-03-23T02:02:26;94663.94;;;6.44;100.00
10946;BME280;5525;42.648;23.368;2023-03-23T02:04:57;94656.78;;;6.40;100.00
10946;BME280;5525;42.648;23.368;2023-03-23T02:07:27;94661.16;;;6.36;100.00
10946;BME280;5525;42.648;23.368;2023-03-23T02:09:54;94663.84;;;6.36;100.00
10946;BME280;5525;42.648;23.368;2023-03-23T02:12:20;94657.78;;;6.57;100.00
10946;BME280;5525;42.648;23.368;2023-03-23T02:14:47;94658.09;;;6.56;100.00
10946;BME280;5525;42.648;23.368;2023-03-23T02:17:20;94663.06;;;6.62;100.00
10946;BME280;5525;42.648;23.368;2023-03-23T02:20:06;94659.19;;;6.68;100.00
10946;BME280;5525;42.648;23.368;2023-03-23T02:22:59;94658.34;;;6.81;100.00
10946;BME280;5525;42.648;23.368;2023-03-23T02:25:45;94659.25;;;6.77;100.00
10946;BME280;5525;42.648;23.368;2023-03-23T02:28:35;94653.00;;;6.68;100.00
10946;BME280;5525;42.648;23.368;2023-03-23T02:31:30;94658.91;;;6.56;100.00
10946;BME280;5525;42.648;23.368;2023-03-23T02:34:09;94658.91;;;6.56;100.00
10946;BME280;5525;42.648;23.368;2023-03-23T02:36:44;94656.97;;;6.57;100.00
10946;BME280;5525;42.648;23.368;2023-03-23T02:39:13;94666.13;;;6.56;100.00
10946;BME280;5525;42.648;23.368;2023-03-23T02:41:43;94667.50;;;6.53;100.00
10946;BME280;5525;42.648;23.368;2023-03-23T02:44:12;94661.06;;;6.54;100.00
10946;BME280;5525;42.648;23.368;2023-03-23T02:46:40;94675.38;;;6.50;100.00
10946;BME280;5525;42.648;23.368;2023-03-23T02:49:11;94669.50;;;6.34;100.00
10946;BME280;5525;42.648;23.368;2023-03-23T02:51:40;94674.06;;;6.34;100.00
10946;BME280;5525;42.648;23.368;2023-03-23T02:54:11;94681.50;;;6.23;100.00
10946;BME280;5525;42.648;23.368;2023-03-23T02:56:39;94682.59;;;6.22;100.00
10946;BME280;5525;42.648;23.368;2023-03-23T02:59:06;94684.47;;;6.22;100.00
10946;BME280;5525;42.648;23.368;2023-03-23T03:01:51;94691.03;;;6.16;100.00
10946;BME280;5525;42.648;23.368;2023-03-23T03:04:24;94695.06;;;6.00;100.00
10946;BME280;5525;42.648;23.368;2023-03-23T03:07:07;94703.06;;;5.86;100.00
10946;BME280;5525;42.648;23.368;2023-03-23T03:09:46;94712.13;;;5.72;100.00
10946;BME280;5525;42.648;23.368;2023-03-23T03:12:23;94717.03;;;5.65;100.00
10946;BME280;5525;42.648;23.368;2023-03-23T03:14:58;94724.72;;;5.53;100.00
10946;BME280;5525;42.648;23.368;2023-03-23T03:17:31;94716.28;;;5.46;100.00
10946;BME280;5525;42.648;23.368;2023-03-23T03:20:02;94722.41;;;5.46;100.00
10946;BME280;5525;42.648;23.368;2023-03-23T03:22:37;94725.66;;;5.43;100.00
10946;BME280;5525;42.648;23.368;2023-03-23T03:25:08;94714.53;;;5.36;100.00
10946;BME280;5525;42.648;23.368;2023-03-23T03:27:38;94715.59;;;5.35;100.00
10946;BME280;5525;42.648;23.368;2023-03-23T03:30:09;94721.75;;;5.36;100.00
10946;BME280;5525;42.648;23.368;2023-03-23T03:32:42;94713.78;;;5.31;100.00
10946;BME280;5525;42.648;23.368;2023-03-23T03:35:13;94727.63;;;5.38;100.00
10946;BME280;5525;42.648;23.368;2023-03-23T03:37:40;94721.13;;;5.44;100.00
10946;BME280;5525;42.648;23.368;2023-03-23T03:40:11;94721.81;;;5.49;100.00
10946;BME280;5525;42.648;23.368;2023-03-23T03:42:39;94720.88;;;5.59;100.00
10946;BME280;5525;42.648;23.368;2023-03-23T03:45:13;94728.50;;;5.33;100.00
10946;BME280;5525;42.648;23.368;2023-03-23T03:47:40;94721.75;;;5.36;100.00
10946;BME280;5525;42.648;23.368;2023-03-23T03:50:07;94721.34;;;5.29;100.00
10946;BME280;5525;42.648;23.368;2023-03-23T03:52:37;94718.84;;;5.32;100.00
10946;BME280;5525;42.648;23.368;2023-03-23T03:55:06;94721.91;;;5.26;100.00
10946;BME280;5525;42.648;23.368;2023-03-23T03:57:34;94722.78;;;5.40;100.00
10946;BME280;5525;42.648;23.368;2023-03-23T04:00:02;94720.88;;;5.40;100.00
10946;BME280;5525;42.648;23.368;2023-03-23T04:02:38;94723.56;;;5.40;100.00
10946;BME280;5525;42.648;23.368;2023-03-23T04:05:06;94716.34;;;5.41;100.00
10946;BME280;5525;42.648;23.368;2023-03-23T04:07:36;94714.00;;;5.53;100.00
10946;BME280;5525;42.648;23.368;2023-03-23T04:10:06;94714.53;;;5.55;100.00
10946;BME280;5525;42.648;23.368;2023-03-23T04:12:33;94700.69;;;5.48;100.00
10946;BME280;5525;42.648;23.368;2023-03-23T04:15:00;94709.53;;;5.30;100.00
10946;BME280;5525;42.648;23.368;2023-03-23T04:17:27;94707.50;;;5.40;100.00
10946;BME280;5525;42.648;23.368;2023-03-23T04:19:54;94716.13;;;5.37;100.00
10946;BME280;5525;42.648;23.368;2023-03-23T04:22:22;94716.34;;;5.41;100.00
10946;BME280;5525;42.648;23.368;2023-03-23T04:24:57;94720.00;;;5.45;100.00
10946;BME280;5525;42.648;23.368;2023-03-23T04:27:26;94707.63;;;5.67;100.00
10946;BME280;5525;42.648;23.368;2023-03-23T04:29:54;94713.00;;;5.67;100.00
10946;BME280;5525;42.648;23.368;2023-03-23T04:32:23;94719.66;;;5.51;100.00
10946;BME280;5525;42.648;23.368;2023-03-23T04:34:55;94710.69;;;5.61;100.00
10946;BME280;5525;42.648;23.368;2023-03-23T04:37:22;94716.16;;;5.69;100.00
10946;BME280;5525;42.648;23.368;2023-03-23T04:39:51;94715.22;;;5.60;100.00
10946;BME280;5525;42.648;23.368;2023-03-23T04:42:28;94713.94;;;5.58;100.00
10946;BME280;5525;42.648;23.368;2023-03-23T04:44:55;94717.84;;;5.65;100.00
10946;BME280;5525;42.648;23.368;2023-03-23T04:47:23;94721.50;;;5.69;100.00
10946;BME280;5525;42.648;23.368;2023-03-23T04:49:50;94726.88;;;5.69;100.00
10946;BME280;5525;42.648;23.368;2023-03-23T04:52:17;94720.59;;;5.60;100.00
10946;BME280;5525;42.648;23.368;2023-03-23T04:54:45;94730.13;;;5.29;100.00
10946;BME280;5525;42.648;23.368;2023-03-23T04:57:13;94736.66;;;5.60;100.00
10946;BME280;5525;42.648;23.368;2023-03-23T04:59:42;94735.34;;;5.76;100.00
10946;BME280;5525;42.648;23.368;2023-03-23T05:02:09;94735.25;;;6.00;100.00
10946;BME280;5525;42.648;23.368;2023-03-23T05:04:36;94735.00;;;5.83;100.00
10946;BME280;5525;42.648;23.368;2023-03-23T05:07:03;94730.84;;;6.09;100.00
10946;BME280;5525;42.648;23.368;2023-03-23T05:09:30;94732.75;;;6.22;100.00
10946;BME280;5525;42.648;23.368;2023-03-23T05:11:56;94736.56;;;6.02;100.00
10946;BME280;5525;42.648;23.368;2023-03-23T05:14:24;94743.31;;;6.32;100.00
10946;BME280;5525;42.648;23.368;2023-03-23T05:16:53;94741.91;;;6.48;100.00
10946;BME280;5525;42.648;23.368;2023-03-23T05:19:20;94738.34;;;6.52;100.00
10946;BME280;5525;42.648;23.368;2023-03-23T05:21:46;94750.09;;;6.70;100.00
10946;BME280;5525;42.648;23.368;2023-03-23T05:24:13;94742.13;;;6.92;100.00
10946;BME280;5525;42.648;23.368;2023-03-23T05:26:40;94742.81;;;6.70;100.00
10946;BME280;5525;42.648;23.368;2023-03-23T05:29:06;94742.72;;;6.35;100.00
10946;BME280;5525;42.648;23.368;2023-03-23T05:31:33;94767.47;;;6.45;100.00
10946;BME280;5525;42.648;23.368;2023-03-23T05:34:01;94762.31;;;6.76;100.00
10946;BME280;5525;42.648;23.368;2023-03-23T05:36:28;94756.44;;;6.47;100.00
10946;BME280;5525;42.648;23.368;2023-03-23T05:38:55;94769.34;;;6.45;100.00
10946;BME280;5525;42.648;23.368;2023-03-23T05:41:25;94770.75;;;6.83;100.00
10946;BME280;5525;42.648;23.368;2023-03-23T05:43:52;94772.56;;;7.15;100.00
10946;BME280;5525;42.648;23.368;2023-03-23T05:46:18;94777.22;;;7.36;100.00
10946;BME280;5525;42.648;23.368;2023-03-23T05:48:45;94772.19;;;7.70;100.00
10946;BME280;5525;42.648;23.368;2023-03-23T05:51:13;94770.25;;;7.35;100.00
10946;BME280;5525;42.648;23.368;2023-03-23T05:53:39;94780.09;;;7.26;100.00
10946;BME280;5525;42.648;23.368;2023-03-23T05:56:07;94777.72;;;7.25;100.00
10946;BME280;5525;42.648;23.368;2023-03-23T05:58:33;94767.19;;;7.77;100.00
10946;BME280;5525;42.648;23.368;2023-03-23T06:01:00;94773.06;;;8.01;100.00
10946;BME280;5525;42.648;23.368;2023-03-23T06:03:27;94773.59;;;8.12;100.00
10946;BME280;5525;42.648;23.368;2023-03-23T06:05:53;94778.34;;;8.50;100.00
10946;BME280;5525;42.648;23.368;2023-03-23T06:08:21;94785.94;;;8.26;100.00
10946;BME280;5525;42.648;23.368;2023-03-23T06:10:49;94778.19;;;8.78;100.00
10946;BME280;5525;42.648;23.368;2023-03-23T06:13:16;94783.03;;;9.06;100.00
10946;BME280;5525;42.648;23.368;2023-03-23T06:15:43;94785.69;;;9.37;100.00
10946;BME280;5525;42.648;23.368;2023-03-23T06:18:09;94787.44;;;9.33;100.00
10946;BME280;5525;42.648;23.368;2023-03-23T06:20:38;94785.34;;;8.91;100.00
10946;BME280;5525;42.648;23.368;2023-03-23T06:23:06;94786.19;;;9.00;100.00
10946;BME280;5525;42.648;23.368;2023-03-23T06:25:35;94785.47;;;8.86;100.00
10946;BME280;5525;42.648;23.368;2023-03-23T06:28:02;94784.31;;;8.70;100.00
10946;BME280;5525;42.648;23.368;2023-03-23T06:30:28;94775.72;;;8.98;100.00
10946;BME280;5525;42.648;23.368;2023-03-23T06:32:55;94789.00;;;9.34;100.00
10946;BME280;5525;42.648;23.368;2023-03-23T06:35:23;94787.16;;;9.51;100.00
10946;BME280;5525;42.648;23.368;2023-03-23T06:37:50;94787.75;;;9.40;100.00
10946;BME280;5525;42.648;23.368;2023-03-23T06:40:18;94780.16;;;9.42;100.00
10946;BME280;5525;42.648;23.368;2023-03-23T06:42:48;94788.75;;;9.44;100.00
10946;BME280;5525;42.648;23.368;2023-03-23T06:45:15;94790.50;;;9.57;100.00
10946;BME280;5525;42.648;23.368;2023-03-23T06:47:45;94788.47;;;9.79;100.00
10946;BME280;5525;42.648;23.368;2023-03-23T06:50:14;94790.72;;;10.46;100.00
10946;BME280;5525;42.648;23.368;2023-03-23T06:52:40;94787.66;;;12.15;100.00
10946;BME280;5525;42.648;23.368;2023-03-23T06:55:11;94783.81;;;14.22;100.00
10946;BME280;5525;42.648;23.368;2023-03-23T06:57:38;94775.66;;;15.48;100.00
10946;BME280;5525;42.648;23.368;2023-03-23T07:00:08;94771.66;;;17.22;92.56
10946;BME280;5525;42.648;23.368;2023-03-23T07:02:37;94780.63;;;19.78;79.13
10946;BME280;5525;42.648;23.368;2023-03-23T07:05:04;94776.38;;;22.96;56.42
10946;BME280;5525;42.648;23.368;2023-03-23T07:07:31;94784.91;;;23.91;47.52
10946;BME280;5525;42.648;23.368;2023-03-23T07:09:58;94792.97;;;26.44;40.02
10946;BME280;5525;42.648;23.368;2023-03-23T07:12:25;94798.19;;;27.27;36.59
10946;BME280;5525;42.648;23.368;2023-03-23T07:14:52;94790.41;;;26.99;34.35
10946;BME280;5525;42.648;23.368;2023-03-23T07:17:20;94798.03;;;29.02;32.50
10946;BME280;5525;42.648;23.368;2023-03-23T07:19:47;94790.31;;;29.79;30.37
10946;BME280;5525;42.648;23.368;2023-03-23T07:22:14;94796.47;;;27.33;33.18
10946;BME280;5525;42.648;23.368;2023-03-23T07:24:41;94797.00;;;26.86;36.21
10946;BME280;5525;42.648;23.368;2023-03-23T07:27:08;94795.53;;;30.52;30.53
10946;BME280;5525;42.648;23.368;2023-03-23T07:29:35;94801.13;;;32.28;27.63
10946;BME280;5525;42.648;23.368;2023-03-23T07:32:04;94810.38;;;33.05;26.27
10946;BME280;5525;42.648;23.368;2023-03-23T07:34:32;94801.34;;;33.91;25.18
10946;BME280;5525;42.648;23.368;2023-03-23T07:36:59;94806.88;;;35.39;23.85
10946;BME280;5525;42.648;23.368;2023-03-23T07:39:26;94813.38;;;36.13;23.08
10946;BME280;5525;42.648;23.368;2023-03-23T07:41:52;94821.22;;;35.94;22.17
10946;BME280;5525;42.648;23.368;2023-03-23T07:44:19;94815.31;;;36.07;21.96
10946;BME280;5525;42.648;23.368;2023-03-23T07:46:46;94822.47;;;37.00;21.86
10946;BME280;5525;42.648;23.368;2023-03-23T07:49:13;94820.66;;;35.52;22.29
10946;BME280;5525;42.648;23.368;2023-03-23T07:51:41;94819.09;;;33.79;23.34
10946;BME280;5525;42.648;23.368;2023-03-23T07:54:08;94823.19;;;34.38;23.31
10946;BME280;5525;42.648;23.368;2023-03-23T07:56:35;94817.44;;;34.65;23.29
10946;BME280;5525;42.648;23.368;2023-03-23T07:59:02;94816.28;;;35.51;22.51
10946;BME280;5525;42.648;23.368;2023-03-23T08:01:30;94819.66;;;36.08;21.66
10946;BME280;5525;42.648;23.368;2023-03-23T08:03:57;94820.25;;;34.65;22.36
10946;BME280;5525;42.648;23.368;2023-03-23T08:06:25;94814.38;;;28.03;28.09
10946;BME280;5525;42.648;23.368;2023-03-23T08:08:53;94813.06;;;29.61;28.09
10946;BME280;5525;42.648;23.368;2023-03-23T08:11:20;94825.38;;;34.34;23.39
10946;BME280;5525;42.648;23.368;2023-03-23T08:13:47;94832.84;;;35.25;22.68
10946;BME280;5525;42.648;23.368;2023-03-23T08:16:14;94825.38;;;31.79;23.97
10946;BME280;5525;42.648;23.368;2023-03-23T08:18:40;94817.34;;;34.08;23.14
10946;BME280;5525;42.648;23.368;2023-03-23T08:21:08;94813.91;;;35.11;21.81
10946;BME280;5525;42.648;23.368;2023-03-23T08:23:38;94820.81;;;33.13;23.13
10946;BME280;5525;42.648;23.368;2023-03-23T08:26:07;94817.72;;;32.53;24.30
10946;BME280;5525;42.648;23.368;2023-03-23T08:28:35;94819.41;;;35.29;21.89
10946;BME280;5525;42.648;23.368;2023-03-23T08:31:06;94824.19;;;35.76;21.09
10946;BME280;5525;42.648;23.368;2023-03-23T08:33:33;94816.44;;;33.75;22.79
10946;BME280;5525;42.648;23.368;2023-03-23T08:36:00;94816.94;;;33.92;22.47
10946;BME280;5525;42.648;23.368;2023-03-23T08:38:28;94817.97;;;37.89;18.99
10946;BME280;5525;42.648;23.368;2023-03-23T08:40:57;94826.78;;;38.02;18.73
10946;BME280;5525;42.648;23.368;2023-03-23T08:43:25;94820.03;;;39.07;17.79
10946;BME280;5525;42.648;23.368;2023-03-23T08:45:52;94819.22;;;34.02;19.77
10946;BME280;5525;42.648;23.368;2023-03-23T08:48:19;94808.47;;;35.31;19.88
10946;BME280;5525;42.648;23.368;2023-03-23T08:50:46;94819.00;;;38.42;17.37
10946;BME280;5525;42.648;23.368;2023-03-23T08:53:12;94806.88;;;35.16;18.21
10946;BME280;5525;42.648;23.368;2023-03-23T08:55:39;94799.00;;;30.81;21.86
10946;BME280;5525;42.648;23.368;2023-03-23T08:58:06;94800.25;;;30.30;21.98
10946;BME280;5525;42.648;23.368;2023-03-23T09:00:35;94809.97;;;32.66;20.84
10946;BME280;5525;42.648;23.368;2023-03-23T09:03:02;94803.28;;;31.51;21.09
10946;BME280;5525;42.648;23.368;2023-03-23T09:05:30;94812.09;;;27.24;25.80
10946;BME280;5525;42.648;23.368;2023-03-23T09:07:58;94804.72;;;24.74;28.46
10946;BME280;5525;42.648;23.368;2023-03-23T09:10:25;94790.97;;;29.71;23.55
10946;BME280;5525;42.648;23.368;2023-03-23T09:12:53;94796.38;;;31.21;21.88
10946;BME280;5525;42.648;23.368;2023-03-23T09:15:22;94800.91;;;28.54;24.28
10946;BME280;5525;42.648;23.368;2023-03-23T09:17:52;94793.25;;;29.18;23.28
10946;BME280;5525;42.648;23.368;2023-03-23T09:20:21;94795.34;;;26.88;25.40
10946;BME280;5525;42.648;23.368;2023-03-23T09:22:50;94793.38;;;25.93;27.28
10946;BME280;5525;42.648;23.368;2023-03-23T09:25:18;94792.69;;;25.85;27.22
10946;BME280;5525;42.648;23.368;2023-03-23T09:27:48;94787.31;;;25.75;27.46
10946;BME280;5525;42.648;23.368;2023-03-23T09:30:18;94790.00;;;28.11;25.40
10946;BME280;5525;42.648;23.368;2023-03-23T09:32:46;94788.38;;;29.22;24.16
10946;BME280;5525;42.648;23.368;2023-03-23T09:35:15;94782.97;;;28.87;25.04
10946;BME280;5525;42.648;23.368;2023-03-23T09:37:43;94783.31;;;29.58;23.99
10946;BME280;5525;42.648;23.368;2023-03-23T09:40:12;94785.53;;;27.81;25.04
10946;BME280;5525;42.648;23.368;2023-03-23T09:42:48;94782.75;;;29.51;23.72
10946;BME280;5525;42.648;23.368;2023-03-23T09:45:23;94784.06;;;31.53;21.67
10946;BME280;5525;42.648;23.368;2023-03-23T09:48:04;94789.09;;;31.02;22.31
10946;BME280;5525;42.648;23.368;2023-03-23T09:50:35;94778.03;;;33.67;20.25
10946;BME280;5525;42.648;23.368;2023-03-23T09:53:10;94774.91;;;34.24;19.74
10946;BME280;5525;42.648;23.368;2023-03-23T09:55:39;94784.88;;;36.05;18.18
10946;BME280;5525;42.648;23.368;2023-03-23T09:58:12;94785.75;;;36.75;17.80
10946;BME280;5525;42.648;23.368;2023-03-23T10:00:46;94775.75;;;34.81;18.61
10946;BME280;5525;42.648;23.368;2023-03-23T10:03:17;94766.63;;;34.39;18.62
10946;BME280;5525;42.648;23.368;2023-03-23T10:05:47;94776.50;;;29.34;22.56
10946;BME280;5525;42.648;23.368;2023-03-23T10:08:16;94775.81;;;27.54;24.95
10946;BME280;5525;42.648;23.368;2023-03-23T10:10:52;94758.91;;;29.66;22.96
10946;BME280;5525;42.648;23.368;2023-03-23T10:13:31;94769.72;;;28.30;24.13
10946;BME280;5525;42.648;23.368;2023-03-23T10:16:02;94763.22;;;28.97;23.88
10946;BME280;5525;42.648;23.368;2023-03-23T10:18:36;94762.06;;;31.11;21.58
10946;BME280;5525;42.648;23.368;2023-03-23T10:21:07;94758.56;;;32.73;19.98
10946;BME280;5525;42.648;23.368;2023-03-23T10:23:52;94761.25;;;33.22;19.53
10946;BME280;5525;42.648;23.368;2023-03-23T10:26:34;94762.28;;;33.69;19.40
10946;BME280;5525;42.648;23.368;2023-03-23T10:29:11;94773.66;;;35.38;18.03
10946;BME280;5525;42.648;23.368;2023-03-23T10:31:41;94763.91;;;36.70;17.56
10946;BME280;5525;42.648;23.368;2023-03-23T10:34:12;94763.81;;;36.79;17.17
10946;BME280;5525;42.648;23.368;2023-03-23T10:36:52;94756.16;;;34.96;18.17
10946;BME280;5525;42.648;23.368;2023-03-23T10:39:23;94758.69;;;35.99;17.78
10946;BME280;5525;42.648;23.368;2023-03-23T10:41:50;94753.75;;;34.56;18.52
10946;BME280;5525;42.648;23.368;2023-03-23T10:44:19;94742.06;;;34.25;18.23
10946;BME280;5525;42.648;23.368;2023-03-23T10:46:51;94751.25;;;35.29;17.81
10946;BME280;5525;42.648;23.368;2023-03-23T10:49:23;94750.34;;;33.69;19.00
10946;BME280;5525;42.648;23.368;2023-03-23T10:51:59;94749.97;;;35.97;17.55
10946;BME280;5525;42.648;23.368;2023-03-23T10:54:31;94760.44;;;36.11;17.43
10946;BME280;5525;42.648;23.368;2023-03-23T10:56:58;94754.66;;;34.62;18.07
10946;BME280;5525;42.648;23.368;2023-03-23T10:59:28;94754.88;;;32.94;19.19
10946;BME280;5525;42.648;23.368;2023-03-23T11:01:57;94744.19;;;30.41;21.21
10946;BME280;5525;42.648;23.368;2023-03-23T11:04:28;94746.69;;;27.07;24.63
10946;BME280;5525;42.648;23.368;2023-03-23T11:07:01;94734.16;;;26.36;25.43
10946;BME280;5525;42.648;23.368;2023-03-23T11:09:37;94727.56;;;29.62;22.95
10946;BME280;5525;42.648;23.368;2023-03-23T11:12:04;94731.00;;;31.74;20.74
10946;BME280;5525;42.648;23.368;2023-03-23T11:14:32;94737.81;;;32.43;20.03
10946;BME280;5525;42.648;23.368;2023-03-23T11:17:03;94731.31;;;31.24;21.01
10946;BME280;5525;42.648;23.368;2023-03-23T11:19:33;94724.28;;;30.64;21.69
10946;BME280;5525;42.648;23.368;2023-03-23T11:22:07;94718.25;;;31.95;20.32
10946;BME280;5525;42.648;23.368;2023-03-23T11:24:36;94717.38;;;32.16;20.31
10946;BME280;5525;42.648;23.368;2023-03-23T11:27:04;94708.34;;;32.51;20.19
10946;BME280;5525;42.648;23.368;2023-03-23T11:29:35;94717.34;;;32.46;19.97
10946;BME280;5525;42.648;23.368;2023-03-23T11:32:04;94720.13;;;32.37;19.40
10946;BME280;5525;42.648;23.368;2023-03-23T11:34:34;94691.13;;;31.43;20.73
10946;BME280;5525;42.648;23.368;2023-03-23T11:37:05;94698.75;;;31.43;20.86
10946;BME280;5525;42.648;23.368;2023-03-23T11:39:35;94705.22;;;32.40;20.14
10946;BME280;5525;42.648;23.368;2023-03-23T11:42:16;94694.69;;;32.62;19.26
10946;BME280;5525;42.648;23.368;2023-03-23T11:44:44;94700.25;;;30.45;22.09
10946;BME280;5525;42.648;23.368;2023-03-23T11:47:17;94690.69;;;31.75;20.89
10946;BME280;5525;42.648;23.368;2023-03-23T11:49:52;94682.38;;;31.84;20.46
10946;BME280;5525;42.648;23.368;2023-03-23T11:52:26;94681.53;;;32.23;20.02
10946;BME280;5525;42.648;23.368;2023-03-23T11:55:02;94686.78;;;31.42;21.37
10946;BME280;5525;42.648;23.368;2023-03-23T11:57:30;94676.97;;;30.73;21.46
10946;BME280;5525;42.648;23.368;2023-03-23T11:59:57;94678.81;;;31.62;20.99
10946;BME280;5525;42.648;23.368;2023-03-23T12:02:42;94679.47;;;30.92;21.43
10946;BME280;5525;42.648;23.368;2023-03-23T12:05:28;94676.66;;;31.14;21.52
10946;BME280;5525;42.648;23.368;2023-03-23T12:08:08;94674.25;;;30.14;22.17
10946;BME280;5525;42.648;23.368;2023-03-23T12:10:42;94668.41;;;29.20;22.87
10946;BME280;5525;42.648;23.368;2023-03-23T12:13:26;94668.66;;;29.38;22.73
10946;BME280;5525;42.648;23.368;2023-03-23T12:16:02;94668.06;;;29.06;23.05
10946;BME280;5525;42.648;23.368;2023-03-23T12:18:38;94657.81;;;28.46;23.57
10946;BME280;5525;42.648;23.368;2023-03-23T12:21:12;94654.63;;;28.31;23.79
10946;BME280;5525;42.648;23.368;2023-03-23T12:23:49;94659.38;;;27.34;24.98
10946;BME280;5525;42.648;23.368;2023-03-23T12:26:24;94668.25;;;26.28;25.78
10946;BME280;5525;42.648;23.368;2023-03-23T12:29:13;94662.44;;;25.50;26.94
10946;BME280;5525;42.648;23.368;2023-03-23T12:31:49;94658.06;;;25.26;27.60
10946;BME280;5525;42.648;23.368;2023-03-23T12:34:26;94649.59;;;25.10;27.75
10946;BME280;5525;42.648;23.368;2023-03-23T12:37:14;94650.34;;;24.16;28.67
10946;BME280;5525;42.648;23.368;2023-03-23T12:39:53;94647.75;;;23.99;29.05
10946;BME280;5525;42.648;23.368;2023-03-23T12:42:33;94646.16;;;23.54;29.99
10946;BME280;5525;42.648;23.368;2023-03-23T12:45:07;94647.03;;;23.44;29.90
10946;BME280;5525;42.648;23.368;2023-03-23T12:47:46;94645.16;;;23.34;30.70
10946;BME280;5525;42.648;23.368;2023-03-23T12:50:18;94652.72;;;22.29;31.84
10946;BME280;5525;42.648;23.368;2023-03-23T12:52:53;94638.69;;;21.43;33.02
10946;BME280;5525;42.648;23.368;2023-03-23T12:55:27;94641.25;;;20.45;34.68
10946;BME280;5525;42.648;23.368;2023-03-23T12:57:58;94640.81;;;20.39;35.55
10946;BME280;5525;42.648;23.368;2023-03-23T13:00:28;94632.97;;;20.34;35.79
10946;BME280;5525;42.648;23.368;2023-03-23T13:03:00;94635.09;;;19.93;36.75
10946;BME280;5525;42.648;23.368;2023-03-23T13:05:33;94639.59;;;19.61;37.50
10946;BME280;5525;42.648;23.368;2023-03-23T13:08:06;94640.81;;;19.20;39.16
10946;BME280;5525;42.648;23.368;2023-03-23T13:10:39;94633.75;;;18.76;40.16
10946;BME280;5525;42.648;23.368;2023-03-23T13:13:13;94634.75;;;18.61;41.21
10946;BME280;5525;42.648;23.368;2023-03-23T13:15:48;94634.22;;;18.44;41.50
10946;BME280;5525;42.648;23.368;2023-03-23T13:18:23;94636.69;;;18.57;42.27